sensor_id;sensor_type;location;lat;lon;timestamp;pressure;altitude;pressure_sealevel;temperature;humidity
45275;BME280;31019;43.780;25.948;2023-02-10T05:38:58;103431.66;;;-12.32;100.00
45275;BME280;31019;43.780;25.948;2023-02-10T05:50:24;103462.91;;;-1.68;100.00
45275;BME280;31019;43.780;25.948;2023-02-10T05:52:51;103466.63;;;-1.07;100.00
45275;BME280;31019;43.780;25.948;2023-02-10T05:55:18;103460.84;;;-0.94;100.00
45275;BME280;31019;43.780;25.948;2023-02-10T05:57:45;103461.75;;;-0.74;100.00
45275;BME280;31019;43.780;25.948;2023-02-10T06:00:13;103470.59;;;-0.58;100.00
45275;BME280;31019;43.780;25.948;2023-02-10T06:02:40;103470.88;;;-0.43;100.00
45275;BME280;31019;43.780;25.948;2023-02-10T06:05:07;103466.34;;;-0.40;100.00
45275;BME280;31019;43.780;25.948;2023-02-10T06:07:35;103476.25;;;-0.28;100.00
45275;BME280;31019;43.780;25.948;2023-02-10T06:10:02;103481.22;;;-0.21;100.00
45275;BME280;31019;43.780;25.948;2023-02-10T06:12:28;103480.88;;;-0.14;100.00
45275;BME280;31019;43.780;25.948;2023-02-10T06:14:56;103489.53;;;-0.12;100.00
45275;BME280;31019;43.780;25.948;2023-02-10T06:17:23;103493.53;;;-0.05;100.00
45275;BME280;31019;43.780;25.948;2023-02-10T06:19:51;103499.28;;;0.04;100.00
45275;BME280;31019;43.780;25.948;2023-02-10T06:22:18;103488.13;;;0.00;100.00
45275;BME280;31019;43.780;25.948;2023-02-10T06:24:46;103479.41;;;-0.01;100.00
45275;BME280;31019;43.780;25.948;2023-02-10T06:27:12;103481.41;;;0.13;100.00
45275;BME280;31019;43.780;25.948;2023-02-10T06:29:40;103492.44;;;0.20;100.00
45275;BME280;31019;43.780;25.948;2023-02-10T06:32:06;103479.44;;;0.18;100.00
45275;BME280;31019;43.780;25.948;2023-02-10T06:34:33;103472.44;;;0.19;100.00
45275;BME280;31019;43.780;25.948;2023-02-10T06:37:00;103477.38;;;0.25;100.00
45275;BME280;31019;43.780;25.948;2023-02-10T06:39:26;103494.63;;;0.29;100.00
45275;BME280;31019;43.780;25.948;2023-02-10T06:41:55;103484.09;;;0.31;100.00
45275;BME280;31019;43.780;25.948;2023-02-10T06:44:23;103488.41;;;0.32;100.00
45275;BME280;31019;43.780;25.948;2023-02-10T06:46:49;103478.78;;;0.32;100.00
45275;BME280;31019;43.780;25.948;2023-02-10T06:49:16;103485.44;;;0.39;100.00
45275;BME280;31019;43.780;25.948;2023-02-10T06:51:43;103497.44;;;0.43;100.00
45275;BME280;31019;43.780;25.948;2023-02-10T06:54:09;103491.78;;;0.53;100.00
45275;BME280;31019;43.780;25.948;2023-02-10T06:56:36;103490.09;;;0.52;100.00
45275;BME280;31019;43.780;25.948;2023-02-10T06:59:08;103489.66;;;0.61;100.00
45275;BME280;31019;43.780;25.948;2023-02-10T07:01:34;103475.56;;;0.63;100.00
45275;BME280;31019;43.780;25.948;2023-02-10T07:04:01;103466.66;;;0.67;100.00
45275;BME280;31019;43.780;25.948;2023-02-10T07:06:28;103484.88;;;0.69;100.00
45275;BME280;31019;43.780;25.948;2023-02-10T07:08:55;103477.13;;;0.67;100.00
45275;BME280;31019;43.780;25.948;2023-02-10T07:11:22;103486.22;;;0.78;100.00
45275;BME280;31019;43.780;25.948;2023-02-10T07:13:48;103475.59;;;0.81;100.00
45275;BME280;31019;43.780;25.948;2023-02-10T07:16:16;103486.25;;;0.95;100.00
45275;BME280;31019;43.780;25.948;2023-02-10T07:18:43;103481.06;;;0.94;100.00
45275;BME280;31019;43.780;25.948;2023-02-10T07:21:10;103474.16;;;0.93;100.00
45275;BME280;31019;43.780;25.948;2023-02-10T07:23:37;103475.63;;;0.98;100.00
45275;BME280;31019;43.780;25.948;2023-02-10T07:26:04;103476.94;;;1.07;100.00
45275;BME280;31019;43.780;25.948;2023-02-10T07:28:31;103474.34;;;1.07;100.00
45275;BME280;31019;43.780;25.948;2023-02-10T07:30:58;103481.09;;;1.11;100.00
45275;BME280;31019;43.780;25.948;2023-02-10T07:33:26;103473.88;;;1.16;100.00
45275;BME280;31019;43.780;25.948;2023-02-10T07:35:54;103472.78;;;1.20;100.00
45275;BME280;31019;43.780;25.948;2023-02-10T07:38:20;103484.50;;;1.30;100.00
45275;BME280;31019;43.780;25.948;2023-02-10T07:40:47;103474.78;;;1.32;100.00
45275;BME280;31019;43.780;25.948;2023-02-10T07:43:14;103466.84;;;1.34;100.00
45275;BME280;31019;43.780;25.948;2023-02-10T07:45:40;103465.38;;;1.46;100.00
45275;BME280;31019;43.780;25.948;2023-02-10T07:48:07;103456.50;;;1.48;100.00
45275;BME280;31019;43.780;25.948;2023-02-10T07:50:35;103458.72;;;1.56;100.00
45275;BME280;31019;43.780;25.948;2023-02-10T07:53:02;103454.94;;;1.62;100.00
45275;BME280;31019;43.780;25.948;2023-02-10T07:55:29;103461.31;;;1.73;100.00
45275;BME280;31019;43.780;25.948;2023-02-10T07:57:55;103452.47;;;1.76;100.00
45275;BME280;31019;43.780;25.948;2023-02-10T08:00:22;103453.47;;;1.89;100.00
45275;BME280;31019;43.780;25.948;2023-02-10T08:02:49;103455.59;;;1.98;100.00
45275;BME280;31019;43.780;25.948;2023-02-10T08:05:16;103459.34;;;2.10;100.00
45275;BME280;31019;43.780;25.948;2023-02-10T08:07:44;103446.84;;;2.15;100.00
45275;BME280;31019;43.780;25.948;2023-02-10T08:10:11;103456.72;;;2.26;100.00
45275;BME280;31019;43.780;25.948;2023-02-10T08:12:37;103449.63;;;2.28;100.00
45275;BME280;31019;43.780;25.948;2023-02-10T08:15:05;103448.84;;;2.42;100.00
45275;BME280;31019;43.780;25.948;2023-02-10T08:17:32;103454.44;;;2.51;100.00
45275;BME280;31019;43.780;25.948;2023-02-10T08:19:59;103452.81;;;2.65;100.00
45275;BME280;31019;43.780;25.948;2023-02-10T08:22:26;103449.06;;;2.69;100.00
45275;BME280;31019;43.780;25.948;2023-02-10T08:24:54;103447.69;;;2.78;100.00
45275;BME280;31019;43.780;25.948;2023-02-10T08:27:21;103445.31;;;2.89;100.00
45275;BME280;31019;43.780;25.948;2023-02-10T08:29:48;103454.06;;;3.04;100.00
45275;BME280;31019;43.780;25.948;2023-02-10T08:32:14;103443.97;;;3.12;100.00
45275;BME280;31019;43.780;25.948;2023-02-10T08:34:44;103451.19;;;3.22;100.00
45275;BME280;31019;43.780;25.948;2023-02-10T08:37:11;103446.34;;;3.31;100.00
45275;BME280;31019;43.780;25.948;2023-02-10T08:39:37;103454.25;;;3.45;100.00
45275;BME280;31019;43.780;25.948;2023-02-10T08:42:06;103454.34;;;3.58;100.00
45275;BME280;31019;43.780;25.948;2023-02-10T08:44:32;103469.19;;;3.73;100.00
45275;BME280;31019;43.780;25.948;2023-02-10T08:46:59;103466.19;;;3.79;100.00
45275;BME280;31019;43.780;25.948;2023-02-10T08:49:26;103460.81;;;3.95;100.00
45275;BME280;31019;43.780;25.948;2023-02-10T08:51:54;103467.28;;;4.04;100.00
45275;BME280;31019;43.780;25.948;2023-02-10T08:54:21;103458.75;;;4.15;100.00
45275;BME280;31019;43.780;25.948;2023-02-10T08:56:52;103457.47;;;4.20;100.00
45275;BME280;31019;43.780;25.948;2023-02-10T08:59:21;103452.59;;;4.28;100.00
45275;BME280;31019;43.780;25.948;2023-02-10T09:01:47;103448.78;;;4.47;100.00
45275;BME280;31019;43.780;25.948;2023-02-10T09:04:14;103443.03;;;4.54;100.00
45275;BME280;31019;43.780;25.948;2023-02-10T09:06:41;103438.63;;;4.68;100.00
45275;BME280;31019;43.780;25.948;2023-02-10T09:09:09;103440.28;;;4.96;100.00
45275;BME280;31019;43.780;25.948;2023-02-10T09:11:36;103440.31;;;5.21;100.00
45275;BME280;31019;43.780;25.948;2023-02-10T09:14:03;103451.72;;;5.60;100.00
45275;BME280;31019;43.780;25.948;2023-02-10T09:16:31;103434.56;;;6.04;96.68
45275;BME280;31019;43.780;25.948;2023-02-10T09:18:58;103443.88;;;6.58;89.73
45275;BME280;31019;43.780;25.948;2023-02-10T09:21:24;103444.09;;;7.14;81.72
45275;BME280;31019;43.780;25.948;2023-02-10T09:23:52;103444.72;;;7.85;74.33
45275;BME280;31019;43.780;25.948;2023-02-10T09:26:18;103438.47;;;8.84;67.24
45275;BME280;31019;43.780;25.948;2023-02-10T09:28:45;103438.72;;;9.84;59.16
45275;BME280;31019;43.780;25.948;2023-02-10T09:31:13;103435.09;;;11.51;52.55
45275;BME280;31019;43.780;25.948;2023-02-10T09:33:42;103445.75;;;13.73;44.73
45275;BME280;31019;43.780;25.948;2023-02-10T09:36:13;103435.25;;;15.21;39.41
45275;BME280;31019;43.780;25.948;2023-02-10T09:38:39;103429.81;;;16.47;35.89
45275;BME280;31019;43.780;25.948;2023-02-10T09:41:12;103429.13;;;16.68;34.47
45275;BME280;31019;43.780;25.948;2023-02-10T09:43:56;103420.56;;;17.40;32.77
45275;BME280;31019;43.780;25.948;2023-02-10T09:46:29;103418.59;;;14.53;33.87
45275;BME280;31019;43.780;25.948;2023-02-10T09:49:08;103425.94;;;14.76;36.61
45275;BME280;31019;43.780;25.948;2023-02-10T09:51:49;103413.56;;;16.86;32.66
45275;BME280;31019;43.780;25.948;2023-02-10T09:54:19;103410.72;;;17.03;31.78
45275;BME280;31019;43.780;25.948;2023-02-10T09:56:46;103415.03;;;17.93;30.68
45275;BME280;31019;43.780;25.948;2023-02-10T09:59:16;103400.81;;;17.99;30.05
45275;BME280;31019;43.780;25.948;2023-02-10T10:01:50;103401.50;;;18.22;29.00
45275;BME280;31019;43.780;25.948;2023-02-10T10:04:21;103399.59;;;18.66;28.47
45275;BME280;31019;43.780;25.948;2023-02-10T10:06:51;103391.47;;;18.87;28.31
45275;BME280;31019;43.780;25.948;2023-02-10T10:09:25;103389.09;;;19.34;27.60
45275;BME280;31019;43.780;25.948;2023-02-10T10:11:55;103396.72;;;19.78;27.46
45275;BME280;31019;43.780;25.948;2023-02-10T10:14:24;103381.63;;;19.36;26.66
45275;BME280;31019;43.780;25.948;2023-02-10T10:17:15;103379.19;;;19.48;26.87
45275;BME280;31019;43.780;25.948;2023-02-10T10:19:55;103376.28;;;20.04;26.41
45275;BME280;31019;43.780;25.948;2023-02-10T10:22:34;103374.81;;;20.08;25.58
45275;BME280;31019;43.780;25.948;2023-02-10T10:25:17;103372.13;;;20.14;25.68
45275;BME280;31019;43.780;25.948;2023-02-10T10:27:55;103355.75;;;20.23;26.17
45275;BME280;31019;43.780;25.948;2023-02-10T10:30:32;103353.69;;;20.58;25.70
45275;BME280;31019;43.780;25.948;2023-02-10T10:33:10;103353.03;;;20.36;25.74
45275;BME280;31019;43.780;25.948;2023-02-10T10:35:42;103350.34;;;20.09;25.69
45275;BME280;31019;43.780;25.948;2023-02-10T10:38:12;103362.25;;;15.74;29.11
45275;BME280;31019;43.780;25.948;2023-02-10T10:40:40;103362.03;;;18.29;27.78
45275;BME280;31019;43.780;25.948;2023-02-10T10:43:12;103363.47;;;19.10;27.08
45275;BME280;31019;43.780;25.948;2023-02-10T10:45:42;103346.00;;;19.47;26.49
45275;BME280;31019;43.780;25.948;2023-02-10T10:48:14;103352.34;;;19.74;26.11
45275;BME280;31019;43.780;25.948;2023-02-10T10:50:44;103330.25;;;20.52;25.65
45275;BME280;31019;43.780;25.948;2023-02-10T10:53:15;103331.03;;;20.66;25.13
45275;BME280;31019;43.780;25.948;2023-02-10T10:55:46;103335.41;;;20.60;25.20
45275;BME280;31019;43.780;25.948;2023-02-10T10:58:26;103337.03;;;20.81;25.08
45275;BME280;31019;43.780;25.948;2023-02-10T11:00:55;103333.50;;;20.80;24.59
45275;BME280;31019;43.780;25.948;2023-02-10T11:03:22;103325.44;;;20.27;25.18
45275;BME280;31019;43.780;25.948;2023-02-10T11:06:03;103317.34;;;20.34;24.93
45275;BME280;31019;43.780;25.948;2023-02-10T11:08:35;103317.34;;;19.94;25.45
45275;BME280;31019;43.780;25.948;2023-02-10T11:11:04;103299.88;;;19.97;25.33
45275;BME280;31019;43.780;25.948;2023-02-10T11:13:37;103303.44;;;20.10;25.51
45275;BME280;31019;43.780;25.948;2023-02-10T11:16:08;103298.25;;;19.89;25.88
45275;BME280;31019;43.780;25.948;2023-02-10T11:18:38;103298.44;;;19.87;25.47
45275;BME280;31019;43.780;25.948;2023-02-10T11:21:08;103290.97;;;19.89;25.54
45275;BME280;31019;43.780;25.948;2023-02-10T11:23:47;103285.06;;;19.53;25.70
45275;BME280;31019;43.780;25.948;2023-02-10T11:26:19;103290.25;;;19.48;26.00
45275;BME280;31019;43.780;25.948;2023-02-10T11:28:47;103280.09;;;19.50;26.05
45275;BME280;31019;43.780;25.948;2023-02-10T11:31:25;103287.44;;;19.14;26.24
45275;BME280;31019;43.780;25.948;2023-02-10T11:33:57;103284.84;;;18.93;26.43
45275;BME280;31019;43.780;25.948;2023-02-10T11:36:35;103283.13;;;18.50;26.92
45275;BME280;31019;43.780;25.948;2023-02-10T11:39:04;103273.47;;;18.28;27.27
45275;BME280;31019;43.780;25.948;2023-02-10T11:41:32;103270.16;;;18.04;27.37
45275;BME280;31019;43.780;25.948;2023-02-10T11:44:00;103272.59;;;17.99;27.72
45275;BME280;31019;43.780;25.948;2023-02-10T11:46:29;103259.50;;;17.75;27.66
45275;BME280;31019;43.780;25.948;2023-02-10T11:48:58;103264.63;;;17.70;28.00
45275;BME280;31019;43.780;25.948;2023-02-10T11:51:26;103251.06;;;17.35;28.67
45275;BME280;31019;43.780;25.948;2023-02-10T11:53:55;103261.47;;;17.08;28.86
45275;BME280;31019;43.780;25.948;2023-02-10T11:56:26;103247.31;;;16.85;29.19
45275;BME280;31019;43.780;25.948;2023-02-10T11:59:27;103246.75;;;16.45;29.26
45275;BME280;31019;43.780;25.948;2023-02-10T12:02:03;103238.81;;;15.99;30.07
45275;BME280;31019;43.780;25.948;2023-02-10T12:05:03;103233.06;;;15.33;30.98
45275;BME280;31019;43.780;25.948;2023-02-10T12:07:40;103240.72;;;14.49;32.22
45275;BME280;31019;43.780;25.948;2023-02-10T12:10:14;103228.28;;;13.17;34.18
45275;BME280;31019;43.780;25.948;2023-02-10T12:12:47;103225.91;;;11.94;36.26
45275;BME280;31019;43.780;25.948;2023-02-10T12:15:25;103223.41;;;10.73;38.88
45275;BME280;31019;43.780;25.948;2023-02-10T12:18:03;103233.06;;;9.69;41.83
45275;BME280;31019;43.780;25.948;2023-02-10T12:20:43;103217.41;;;8.87;45.02
45275;BME280;31019;43.780;25.948;2023-02-10T12:23:37;103221.91;;;8.23;49.13
45275;BME280;31019;43.780;25.948;2023-02-10T12:26:13;103220.69;;;7.74;53.09
45275;BME280;31019;43.780;25.948;2023-02-10T12:28:50;103214.81;;;7.27;57.61
45275;BME280;31019;43.780;25.948;2023-02-10T12:31:28;103220.84;;;7.07;62.22
45275;BME280;31019;43.780;25.948;2023-02-10T12:34:11;103210.56;;;6.81;66.27
45275;BME280;31019;43.780;25.948;2023-02-10T12:36:49;103203.94;;;6.42;69.78
45275;BME280;31019;43.780;25.948;2023-02-10T12:39:22;103207.75;;;6.27;73.48
45275;BME280;31019;43.780;25.948;2023-02-10T12:41:58;103199.41;;;6.09;76.38
45275;BME280;31019;43.780;25.948;2023-02-10T12:44:37;103214.97;;;6.01;79.01
45275;BME280;31019;43.780;25.948;2023-02-10T12:47:16;103205.91;;;5.92;81.09
45275;BME280;31019;43.780;25.948;2023-02-10T12:49:56;103208.03;;;5.76;82.27
45275;BME280;31019;43.780;25.948;2023-02-10T12:52:32;103202.63;;;5.77;83.97
45275;BME280;31019;43.780;25.948;2023-02-10T12:55:04;103205.59;;;5.72;85.54
45275;BME280;31019;43.780;25.948;2023-02-10T12:57:43;103207.97;;;5.64;86.91
45275;BME280;31019;43.780;25.948;2023-02-10T13:00:16;103209.84;;;5.62;88.30
45275;BME280;31019;43.780;25.948;2023-02-10T13:02:48;103211.03;;;5.58;89.30
45275;BME280;31019;43.780;25.948;2023-02-10T13:05:19;103211.28;;;5.55;90.70
45275;BME280;31019;43.780;25.948;2023-02-10T13:07:50;103206.44;;;5.49;92.23
45275;BME280;31019;43.780;25.948;2023-02-10T13:10:26;103210.28;;;5.45;93.00
45275;BME280;31019;43.780;25.948;2023-02-10T13:13:00;103199.44;;;5.37;93.72
45275;BME280;31019;43.780;25.948;2023-02-10T13:15:32;103196.06;;;5.35;93.62
45275;BME280;31019;43.780;25.948;2023-02-10T13:18:01;103200.41;;;5.36;95.57
45275;BME280;31019;43.780;25.948;2023-02-10T13:20:36;103201.22;;;5.36;97.06
45275;BME280;31019;43.780;25.948;2023-02-10T13:23:16;103200.63;;;5.33;97.95
45275;BME280;31019;43.780;25.948;2023-02-10T13:25:59;103201.69;;;5.30;98.46
45275;BME280;31019;43.780;25.948;2023-02-10T13:28:37;103200.94;;;5.28;98.73
45275;BME280;31019;43.780;25.948;2023-02-10T13:31:27;103200.19;;;5.26;97.77
45275;BME280;31019;43.780;25.948;2023-02-10T13:34:01;103197.06;;;5.21;98.97
45275;BME280;31019;43.780;25.948;2023-02-10T13:36:33;103205.81;;;5.21;99.55
45275;BME280;31019;43.780;25.948;2023-02-10T13:39:04;103198.97;;;5.19;99.74
45275;BME280;31019;43.780;25.948;2023-02-10T13:41:34;103198.13;;;5.18;100.00
45275;BME280;31019;43.780;25.948;2023-02-10T13:44:23;103205.06;;;5.19;99.76
45275;BME280;31019;43.780;25.948;2023-02-10T13:46:54;103200.25;;;5.13;99.72
45275;BME280;31019;43.780;25.948;2023-02-10T13:49:22;103202.03;;;5.13;100.00
45275;BME280;31019;43.780;25.948;2023-02-10T13:51:50;103203.84;;;5.12;100.00
45275;BME280;31019;43.780;25.948;2023-02-10T13:54:27;103194.34;;;5.10;99.98
45275;BME280;31019;43.780;25.948;2023-02-10T13:56:56;103206.03;;;5.18;99.45
45275;BME280;31019;43.780;25.948;2023-02-10T13:59:36;103197.72;;;5.12;100.00
45275;BME280;31019;43.780;25.948;2023-02-10T14:02:11;103199.63;;;5.10;100.00
45275;BME280;31019;43.780;25.948;2023-02-10T14:04:44;103204.16;;;5.08;100.00
45275;BME280;31019;43.780;25.948;2023-02-10T14:07:30;103195.09;;;5.12;100.00
45275;BME280;31019;43.780;25.948;2023-02-10T14:10:04;103195.09;;;4.99;100.00
45275;BME280;31019;43.780;25.948;2023-02-10T14:12:32;103193.44;;;4.98;100.00
45275;BME280;31019;43.780;25.948;2023-02-10T14:15:19;103184.06;;;4.94;100.00
45275;BME280;31019;43.780;25.948;2023-02-10T14:17:54;103182.50;;;4.91;100.00
45275;BME280;31019;43.780;25.948;2023-02-10T14:20:25;103186.91;;;4.91;100.00
45275;BME280;31019;43.780;25.948;2023-02-10T14:22:55;103186.41;;;4.86;100.00
45275;BME280;31019;43.780;25.948;2023-02-10T14:25:29;103187.97;;;4.88;100.00
45275;BME280;31019;43.780;25.948;2023-02-10T14:27:57;103186.06;;;4.77;100.00
45275;BME280;31019;43.780;25.948;2023-02-10T14:30:28;103188.53;;;4.68;100.00
45275;BME280;31019;43.780;25.948;2023-02-10T14:32:58;103184.03;;;4.57;100.00
45275;BME280;31019;43.780;25.948;2023-02-10T14:35:26;103193.19;;;4.51;100.00
45275;BME280;31019;43.780;25.948;2023-02-10T14:37:56;103187.88;;;4.39;100.00
45275;BME280;31019;43.780;25.948;2023-02-10T14:40:24;103185.69;;;4.32;100.00
45275;BME280;31019;43.780;25.948;2023-02-10T14:42:52;103192.53;;;4.22;100.00
45275;BME280;31019;43.780;25.948;2023-02-10T14:45:20;103191.75;;;4.07;100.00
45275;BME280;31019;43.780;25.948;2023-02-10T14:47:50;103183.03;;;3.94;100.00
45275;BME280;31019;43.780;25.948;2023-02-10T14:50:23;103178.88;;;3.77;100.00
45275;BME280;31019;43.780;25.948;2023-02-10T14:52:50;103178.44;;;3.71;100.00
45275;BME280;31019;43.780;25.948;2023-02-10T14:55:28;103174.72;;;3.60;100.00
45275;BME280;31019;43.780;25.948;2023-02-10T14:57:57;103171.84;;;3.51;100.00
45275;BME280;31019;43.780;25.948;2023-02-10T15:00:29;103168.97;;;3.41;100.00
45275;BME280;31019;43.780;25.948;2023-02-10T15:02:59;103177.81;;;3.40;100.00
45275;BME280;31019;43.780;25.948;2023-02-10T15:05:31;103170.88;;;3.39;100.00
45275;BME280;31019;43.780;25.948;2023-02-10T15:07:59;103173.66;;;3.36;100.00
45275;BME280;31019;43.780;25.948;2023-02-10T15:10:30;103174.63;;;3.35;100.00
45275;BME280;31019;43.780;25.948;2023-02-10T15:13:00;103173.56;;;3.10;100.00
45275;BME280;31019;43.780;25.948;2023-02-10T15:15:30;103180.03;;;3.05;100.00
45275;BME280;31019;43.780;25.948;2023-02-10T15:18:01;103179.19;;;3.04;100.00
45275;BME280;31019;43.780;25.948;2023-02-10T15:20:32;103174.34;;;2.98;100.00
45275;BME280;31019;43.780;25.948;2023-02-10T15:23:13;103167.88;;;2.89;100.00
45275;BME280;31019;43.780;25.948;2023-02-10T15:25:41;103171.44;;;2.88;100.00
45275;BME280;31019;43.780;25.948;2023-02-10T15:28:26;103175.47;;;2.80;100.00
45275;BME280;31019;43.780;25.948;2023-02-10T15:30:58;103177.34;;;2.78;100.00
45275;BME280;31019;43.780;25.948;2023-02-10T15:33:30;103178.94;;;2.80;100.00
45275;BME280;31019;43.780;25.948;2023-02-10T15:36:12;103178.38;;;2.75;100.00
45275;BME280;31019;43.780;25.948;2023-02-10T15:38:42;103179.44;;;2.72;100.00
45275;BME280;31019;43.780;25.948;2023-02-10T15:41:27;103173.22;;;2.73;100.00
45275;BME280;31019;43.780;25.948;2023-02-10T15:43:54;103181.75;;;2.77;100.00
45275;BME280;31019;43.780;25.948;2023-02-10T15:46:23;103180.34;;;2.71;100.00
45275;BME280;31019;43.780;25.948;2023-02-10T15:48:52;103186.72;;;2.67;100.00
45275;BME280;31019;43.780;25.948;2023-02-10T15:51:22;103181.75;;;2.63;100.00
45275;BME280;31019;43.780;25.948;2023-02-10T15:53:51;103197.50;;;2.63;100.00
45275;BME280;31019;43.780;25.948;2023-02-10T15:56:20;103194.41;;;2.56;100.00
45275;BME280;31019;43.780;25.948;2023-02-10T15:58:47;103196.94;;;2.58;100.00
45275;BME280;31019;43.780;25.948;2023-02-10T16:01:13;103198.16;;;2.52;100.00
45275;BME280;31019;43.780;25.948;2023-02-10T16:03:40;103201.88;;;2.48;100.00
45275;BME280;31019;43.780;25.948;2023-02-10T16:06:12;103200.31;;;2.45;100.00
45275;BME280;31019;43.780;25.948;2023-02-10T16:08:40;103213.50;;;2.44;100.00
45275;BME280;31019;43.780;25.948;2023-02-10T16:11:09;103218.09;;;2.40;100.00
45275;BME280;31019;43.780;25.948;2023-02-10T16:13:36;103219.41;;;2.33;100.00
45275;BME280;31019;43.780;25.948;2023-02-10T16:16:04;103211.72;;;2.30;100.00
45275;BME280;31019;43.780;25.948;2023-02-10T16:18:31;103221.72;;;2.23;100.00
45275;BME280;31019;43.780;25.948;2023-02-10T16:20:58;103211.69;;;2.16;100.00
45275;BME280;31019;43.780;25.948;2023-02-10T16:23:28;103215.31;;;2.13;100.00
45275;BME280;31019;43.780;25.948;2023-02-10T16:25:55;103228.63;;;2.10;100.00
45275;BME280;31019;43.780;25.948;2023-02-10T16:28:22;103228.19;;;2.02;100.00
45275;BME280;31019;43.780;25.948;2023-02-10T16:30:49;103241.41;;;2.00;100.00
45275;BME280;31019;43.780;25.948;2023-02-10T16:33:15;103240.56;;;2.00;100.00
45275;BME280;31019;43.780;25.948;2023-02-10T16:35:42;103233.81;;;1.96;100.00
45275;BME280;31019;43.780;25.948;2023-02-10T16:38:09;103229.75;;;1.90;100.00
45275;BME280;31019;43.780;25.948;2023-02-10T16:40:38;103222.84;;;1.89;100.00
45275;BME280;31019;43.780;25.948;2023-02-10T16:43:05;103220.47;;;1.84;100.00
45275;BME280;31019;43.780;25.948;2023-02-10T16:45:33;103226.56;;;1.85;100.00
45275;BME280;31019;43.780;25.948;2023-02-10T16:48:00;103221.84;;;1.76;100.00
45275;BME280;31019;43.780;25.948;2023-02-10T16:50:30;103230.78;;;1.72;100.00
45275;BME280;31019;43.780;25.948;2023-02-10T16:52:57;103231.81;;;1.69;100.00
45275;BME280;31019;43.780;25.948;2023-02-10T16:55:24;103218.03;;;1.66;100.00
45275;BME280;31019;43.780;25.948;2023-02-10T16:57:52;103217.47;;;1.60;100.00
45275;BME280;31019;43.780;25.948;2023-02-10T17:00:20;103217.72;;;1.56;100.00
45275;BME280;31019;43.780;25.948;2023-02-10T17:02:47;103212.47;;;1.56;100.00
45275;BME280;31019;43.780;25.948;2023-02-10T17:05:15;103215.03;;;1.57;100.00
45275;BME280;31019;43.780;25.948;2023-02-10T17:07:42;103220.84;;;1.47;100.00
45275;BME280;31019;43.780;25.948;2023-02-10T17:10:14;103228.78;;;1.45;100.00
45275;BME280;31019;43.780;25.948;2023-02-10T17:12:41;103226.00;;;1.48;100.00
45275;BME280;31019;43.780;25.948;2023-02-10T17:15:10;103225.41;;;1.43;100.00
45275;BME280;31019;43.780;25.948;2023-02-10T17:17:37;103228.13;;;1.42;100.00
45275;BME280;31019;43.780;25.948;2023-02-10T17:20:05;103219.69;;;1.36;100.00
45275;BME280;31019;43.780;25.948;2023-02-10T17:22:32;103224.50;;;1.28;100.00
45275;BME280;31019;43.780;25.948;2023-02-10T17:24:59;103237.16;;;1.36;100.00
45275;BME280;31019;43.780;25.948;2023-02-10T17:27:26;103231.91;;;1.36;100.00
45275;BME280;31019;43.780;25.948;2023-02-10T17:29:53;103233.53;;;1.38;100.00
45275;BME280;31019;43.780;25.948;2023-02-10T17:32:21;103221.88;;;1.28;100.00
45275;BME280;31019;43.780;25.948;2023-02-10T17:34:48;103222.53;;;1.32;100.00
45275;BME280;31019;43.780;25.948;2023-02-10T17:37:15;103228.78;;;1.29;100.00
45275;BME280;31019;43.780;25.948;2023-02-10T17:39:41;103224.66;;;1.25;100.00
45275;BME280;31019;43.780;25.948;2023-02-10T17:42:09;103230.84;;;1.24;100.00
45275;BME280;31019;43.780;25.948;2023-02-10T17:44:36;103225.59;;;1.24;100.00
45275;BME280;31019;43.780;25.948;2023-02-10T17:47:03;103234.19;;;1.26;100.00
45275;BME280;31019;43.780;25.948;2023-02-10T17:53:12;103209.47;;;-3.78;100.00
45275;BME280;31019;43.780;25.948;2023-02-10T17:55:41;103203.47;;;-4.90;100.00
45275;BME280;31019;43.780;25.948;2023-02-10T17:58:08;103207.53;;;-5.11;100.00
45275;BME280;31019;43.780;25.948;2023-02-10T18:00:35;103209.94;;;-5.36;100.00
45275;BME280;31019;43.780;25.948;2023-02-10T18:03:02;103209.47;;;-5.50;100.00
45275;BME280;31019;43.780;25.948;2023-02-10T18:05:29;103205.06;;;-5.46;100.00
45275;BME280;31019;43.780;25.948;2023-02-10T18:07:55;103209.09;;;-5.69;100.00
45275;BME280;31019;43.780;25.948;2023-02-10T18:10:23;103211.84;;;-5.42;100.00
45275;BME280;31019;43.780;25.948;2023-02-10T18:12:50;103210.91;;;-5.38;100.00
45275;BME280;31019;43.780;25.948;2023-02-10T18:15:17;103199.03;;;-5.47;100.00
45275;BME280;31019;43.780;25.948;2023-02-10T18:17:44;103199.72;;;-5.73;100.00
45275;BME280;31019;43.780;25.948;2023-02-10T18:20:11;103202.22;;;-5.70;100.00
45275;BME280;31019;43.780;25.948;2023-02-10T18:22:38;103205.97;;;-5.82;100.00
45275;BME280;31019;43.780;25.948;2023-02-10T18:25:05;103209.81;;;-5.62;100.00
45275;BME280;31019;43.780;25.948;2023-02-10T18:27:33;103210.75;;;-5.66;100.00
45275;BME280;31019;43.780;25.948;2023-02-10T18:30:00;103209.91;;;-5.67;100.00
45275;BME280;31019;43.780;25.948;2023-02-10T18:32:27;103210.38;;;-5.85;100.00
45275;BME280;31019;43.780;25.948;2023-02-10T18:34:53;103211.38;;;-5.89;100.00
45275;BME280;31019;43.780;25.948;2023-02-10T18:37:20;103218.31;;;-5.91;100.00
45275;BME280;31019;43.780;25.948;2023-02-10T18:39:47;103216.56;;;-5.91;100.00
45275;BME280;31019;43.780;25.948;2023-02-10T18:42:13;103214.47;;;-6.09;100.00
45275;BME280;31019;43.780;25.948;2023-02-10T18:44:42;103217.31;;;-6.20;100.00
45275;BME280;31019;43.780;25.948;2023-02-10T18:47:09;103209.91;;;-6.00;100.00